sensor_id;sensor_type;location;lat;lon;timestamp;pressure;altitude;pressure_sealevel;temperature;humidity
6216;BME280;3141;49.234;9.326;2023-05-21T00:00:39;99282.59;;;20.16;71.40
6216;BME280;3141;49.234;9.326;2023-05-21T00:01:40;99279.16;;;20.27;70.80
6216;BME280;3141;49.234;9.326;2023-05-21T00:02:40;99286.16;;;20.28;70.53
6216;BME280;3141;49.234;9.326;2023-05-21T00:03:42;99293.59;;;20.26;70.58
6216;BME280;3141;49.234;9.326;2023-05-21T00:04:45;99289.28;;;20.25;70.90
6216;BME280;3141;49.234;9.326;2023-05-21T00:05:46;99282.44;;;20.29;70.96
6216;BME280;3141;49.234;9.326;2023-05-21T00:06:47;99292.81;;;20.26;71.16
6216;BME280;3141;49.234;9.326;2023-05-21T00:07:48;99282.50;;;20.23;70.64
6216;BME280;3141;49.234;9.326;2023-05-21T00:08:49;99291.25;;;20.18;71.03
6216;BME280;3141;49.234;9.326;2023-05-21T00:09:49;99287.66;;;20.06;71.09
6216;BME280;3141;49.234;9.326;2023-05-21T00:10:50;99288.53;;;20.00;71.76
6216;BME280;3141;49.234;9.326;2023-05-21T00:11:51;99288.53;;;20.00;71.14
6216;BME280;3141;49.234;9.326;2023-05-21T00:12:52;99293.78;;;19.95;71.89
6216;BME280;3141;49.234;9.326;2023-05-21T00:13:53;99288.41;;;19.95;72.25
6216;BME280;3141;49.234;9.326;2023-05-21T00:14:54;99288.53;;;20.00;71.81
6216;BME280;3141;49.234;9.326;2023-05-21T00:15:55;99280.81;;;19.92;72.43
6216;BME280;3141;49.234;9.326;2023-05-21T00:16:56;99282.00;;;19.96;72.20
6216;BME280;3141;49.234;9.326;2023-05-21T00:17:57;99276.19;;;19.99;71.74
6216;BME280;3141;49.234;9.326;2023-05-21T00:18:58;99276.56;;;19.85;72.39
6216;BME280;3141;49.234;9.326;2023-05-21T00:19:59;99282.00;;;19.78;73.47
6216;BME280;3141;49.234;9.326;2023-05-21T00:21:01;99282.91;;;19.72;73.35
6216;BME280;3141;49.234;9.326;2023-05-21T00:22:02;99277.56;;;19.72;73.64
6216;BME280;3141;49.234;9.326;2023-05-21T00:23:04;99283.16;;;19.71;73.47
6216;BME280;3141;49.234;9.326;2023-05-21T00:24:05;99276.28;;;19.57;74.12
6216;BME280;3141;49.234;9.326;2023-05-21T00:25:07;99279.72;;;19.64;73.69
6216;BME280;3141;49.234;9.326;2023-05-21T00:26:08;99272.47;;;19.64;73.93
6216;BME280;3141;49.234;9.326;2023-05-21T00:27:09;99278.91;;;19.63;74.43
6216;BME280;3141;49.234;9.326;2023-05-21T00:28:11;99279.78;;;19.57;74.82
6216;BME280;3141;49.234;9.326;2023-05-21T00:29:12;99275.91;;;19.71;73.75
6216;BME280;3141;49.234;9.326;2023-05-21T00:30:13;99276.97;;;19.70;73.89
6216;BME280;3141;49.234;9.326;2023-05-21T00:31:14;99274.13;;;19.65;74.00
6216;BME280;3141;49.234;9.326;2023-05-21T00:32:15;99271.59;;;19.70;73.78
6216;BME280;3141;49.234;9.326;2023-05-21T00:33:16;99271.13;;;19.73;73.33
6216;BME280;3141;49.234;9.326;2023-05-21T00:34:17;99265.19;;;19.71;73.20
6216;BME280;3141;49.234;9.326;2023-05-21T00:35:18;99261.31;;;19.67;73.78
6216;BME280;3141;49.234;9.326;2023-05-21T00:36:19;99267.09;;;19.64;73.91
6216;BME280;3141;49.234;9.326;2023-05-21T00:37:23;99265.84;;;19.67;73.37
6216;BME280;3141;49.234;9.326;2023-05-21T00:38:24;99264.72;;;19.56;74.13
6216;BME280;3141;49.234;9.326;2023-05-21T00:39:27;99267.28;;;19.51;74.28
6216;BME280;3141;49.234;9.326;2023-05-21T00:40:29;99263.97;;;19.49;74.20
6216;BME280;3141;49.234;9.326;2023-05-21T00:41:30;99259.44;;;19.49;74.40
6216;BME280;3141;49.234;9.326;2023-05-21T00:42:31;99261.16;;;19.44;75.01
6216;BME280;3141;49.234;9.326;2023-05-21T00:43:33;99267.34;;;19.44;74.96
6216;BME280;3141;49.234;9.326;2023-05-21T00:44:34;99265.31;;;19.40;74.95
6216;BME280;3141;49.234;9.326;2023-05-21T00:45:35;99263.69;;;19.39;74.98
6216;BME280;3141;49.234;9.326;2023-05-21T00:46:36;99261.88;;;19.33;75.69
6216;BME280;3141;49.234;9.326;2023-05-21T00:47:37;99258.00;;;19.29;75.60
6216;BME280;3141;49.234;9.326;2023-05-21T00:48:38;99254.28;;;19.30;75.21
6216;BME280;3141;49.234;9.326;2023-05-21T00:49:40;99251.75;;;19.35;75.06
6216;BME280;3141;49.234;9.326;2023-05-21T00:50:41;99255.50;;;19.34;75.30
6216;BME280;3141;49.234;9.326;2023-05-21T00:51:42;99262.09;;;19.31;75.59
6216;BME280;3141;49.234;9.326;2023-05-21T00:52:44;99261.31;;;19.24;75.60
6216;BME280;3141;49.234;9.326;2023-05-21T00:53:47;99257.22;;;19.22;76.01
6216;BME280;3141;49.234;9.326;2023-05-21T00:54:49;99247.28;;;19.29;75.55
6216;BME280;3141;49.234;9.326;2023-05-21T00:55:50;99251.88;;;19.22;76.08
6216;BME280;3141;49.234;9.326;2023-05-21T00:56:53;99259.25;;;19.26;76.29
6216;BME280;3141;49.234;9.326;2023-05-21T00:57:54;99249.53;;;19.32;76.00
6216;BME280;3141;49.234;9.326;2023-05-21T00:58:55;99244.69;;;19.40;74.88
6216;BME280;3141;49.234;9.326;2023-05-21T00:59:57;99248.44;;;19.39;75.10
6216;BME280;3141;49.234;9.326;2023-05-21T01:00:59;99253.25;;;19.49;74.69
6216;BME280;3141;49.234;9.326;2023-05-21T01:02:03;99250.28;;;19.57;73.94
6216;BME280;3141;49.234;9.326;2023-05-21T01:03:06;99255.44;;;19.59;74.21
6216;BME280;3141;49.234;9.326;2023-05-21T01:04:07;99256.84;;;19.61;73.79
6216;BME280;3141;49.234;9.326;2023-05-21T01:05:09;99253.69;;;19.64;73.41
6216;BME280;3141;49.234;9.326;2023-05-21T01:06:10;99254.63;;;19.58;74.26
6216;BME280;3141;49.234;9.326;2023-05-21T01:07:13;99247.81;;;19.55;74.63
6216;BME280;3141;49.234;9.326;2023-05-21T01:08:14;99254.63;;;19.58;74.08
6216;BME280;3141;49.234;9.326;2023-05-21T01:09:15;99255.22;;;19.60;73.38
6216;BME280;3141;49.234;9.326;2023-05-21T01:10:16;99254.00;;;19.56;73.59
6216;BME280;3141;49.234;9.326;2023-05-21T01:11:18;99252.06;;;19.45;74.84
6216;BME280;3141;49.234;9.326;2023-05-21T01:12:22;99250.72;;;19.54;74.12
6216;BME280;3141;49.234;9.326;2023-05-21T01:13:23;99254.84;;;19.57;73.86
6216;BME280;3141;49.234;9.326;2023-05-21T01:14:25;99250.72;;;19.54;74.34
6216;BME280;3141;49.234;9.326;2023-05-21T01:15:26;99248.88;;;19.54;74.37
6216;BME280;3141;49.234;9.326;2023-05-21T01:16:28;99246.84;;;19.50;74.76
6216;BME280;3141;49.234;9.326;2023-05-21T01:17:29;99242.53;;;19.49;74.53
6216;BME280;3141;49.234;9.326;2023-05-21T01:18:32;99249.97;;;19.47;74.79
6216;BME280;3141;49.234;9.326;2023-05-21T01:19:35;99244.38;;;19.48;74.52
6216;BME280;3141;49.234;9.326;2023-05-21T01:20:36;99234.03;;;19.52;74.38
6216;BME280;3141;49.234;9.326;2023-05-21T01:21:41;99243.75;;;19.53;74.00
6216;BME280;3141;49.234;9.326;2023-05-21T01:23:02;99248.66;;;19.56;73.82
6216;BME280;3141;49.234;9.326;2023-05-21T01:24:03;99239.41;;;19.52;74.58
6216;BME280;3141;49.234;9.326;2023-05-21T01:25:05;99241.06;;;19.53;74.21
6216;BME280;3141;49.234;9.326;2023-05-21T01:26:06;99241.13;;;19.46;74.93
6216;BME280;3141;49.234;9.326;2023-05-21T01:27:07;99243.38;;;19.49;74.56
6216;BME280;3141;49.234;9.326;2023-05-21T01:28:10;99241.94;;;19.47;74.98
6216;BME280;3141;49.234;9.326;2023-05-21T01:29:12;99244.84;;;19.45;74.80
6216;BME280;3141;49.234;9.326;2023-05-21T01:30:14;99244.09;;;19.38;75.41
6216;BME280;3141;49.234;9.326;2023-05-21T01:31:26;99247.59;;;19.39;74.99
6216;BME280;3141;49.234;9.326;2023-05-21T01:32:55;99247.44;;;19.34;74.90
6216;BME280;3141;49.234;9.326;2023-05-21T01:34:00;99244.94;;;19.39;74.91
6216;BME280;3141;49.234;9.326;2023-05-21T01:35:07;99245.94;;;19.38;74.84
6216;BME280;3141;49.234;9.326;2023-05-21T01:36:17;99235.22;;;19.38;74.93
6216;BME280;3141;49.234;9.326;2023-05-21T01:38:40;99243.25;;;19.38;74.21
6216;BME280;3141;49.234;9.326;2023-05-21T01:39:46;99239.34;;;19.40;74.50
6216;BME280;3141;49.234;9.326;2023-05-21T01:40:55;99241.03;;;19.35;74.73
6216;BME280;3141;49.234;9.326;2023-05-21T01:41:59;99242.31;;;19.32;75.29
6216;BME280;3141;49.234;9.326;2023-05-21T01:43:04;99236.50;;;19.35;74.52
6216;BME280;3141;49.234;9.326;2023-05-21T01:44:07;99234.88;;;19.34;74.45
6216;BME280;3141;49.234;9.326;2023-05-21T01:45:09;99239.63;;;19.32;75.02
6216;BME280;3141;49.234;9.326;2023-05-21T01:46:16;99240.25;;;19.28;75.35
6216;BME280;3141;49.234;9.326;2023-05-21T01:47:21;99233.03;;;19.28;75.40
6216;BME280;3141;49.234;9.326;2023-05-21T01:48:26;99235.53;;;19.30;75.21
6216;BME280;3141;49.234;9.326;2023-05-21T01:49:28;99240.69;;;19.25;75.47
6216;BME280;3141;49.234;9.326;2023-05-21T01:50:29;99234.66;;;19.29;74.76
6216;BME280;3141;49.234;9.326;2023-05-21T01:51:32;99239.06;;;19.24;74.90
6216;BME280;3141;49.234;9.326;2023-05-21T01:52:33;99238.31;;;19.17;75.22
6216;BME280;3141;49.234;9.326;2023-05-21T01:53:34;99237.03;;;19.19;75.23
6216;BME280;3141;49.234;9.326;2023-05-21T01:54:38;99235.78;;;19.22;75.14
6216;BME280;3141;49.234;9.326;2023-05-21T01:55:39;99237.19;;;19.24;74.80
6216;BME280;3141;49.234;9.326;2023-05-21T01:56:41;99233.75;;;19.17;75.68
6216;BME280;3141;49.234;9.326;2023-05-21T01:57:42;99235.03;;;19.15;75.31
6216;BME280;3141;49.234;9.326;2023-05-21T01:58:43;99230.53;;;19.09;75.63
6216;BME280;3141;49.234;9.326;2023-05-21T01:59:44;99231.97;;;19.11;75.75
6216;BME280;3141;49.234;9.326;2023-05-21T02:00:47;99227.59;;;19.17;75.29
6216;BME280;3141;49.234;9.326;2023-05-21T02:01:50;99236.28;;;19.12;75.86
6216;BME280;3141;49.234;9.326;2023-05-21T02:02:51;99231.38;;;19.09;75.97
6216;BME280;3141;49.234;9.326;2023-05-21T02:03:53;99234.72;;;19.05;76.44
6216;BME280;3141;49.234;9.326;2023-05-21T02:04:54;99233.81;;;18.93;77.42
6216;BME280;3141;49.234;9.326;2023-05-21T02:05:55;99233.97;;;18.98;76.06
6216;BME280;3141;49.234;9.326;2023-05-21T02:06:56;99236.34;;;19.06;75.77
6216;BME280;3141;49.234;9.326;2023-05-21T02:07:57;99231.38;;;19.09;75.63
6216;BME280;3141;49.234;9.326;2023-05-21T02:09:00;99236.72;;;19.09;76.10
6216;BME280;3141;49.234;9.326;2023-05-21T02:10:01;99232.66;;;19.07;76.34
6216;BME280;3141;49.234;9.326;2023-05-21T02:11:02;99228.69;;;19.09;76.14
6216;BME280;3141;49.234;9.326;2023-05-21T02:12:03;99232.28;;;19.03;75.92
6216;BME280;3141;49.234;9.326;2023-05-21T02:13:04;99233.06;;;19.04;75.50
6216;BME280;3141;49.234;9.326;2023-05-21T02:14:05;99233.53;;;19.01;75.72
6216;BME280;3141;49.234;9.326;2023-05-21T02:15:08;99226.09;;;19.03;75.71
6216;BME280;3141;49.234;9.326;2023-05-21T02:16:10;99232.66;;;19.07;75.73
6216;BME280;3141;49.234;9.326;2023-05-21T02:17:11;99230.53;;;19.09;75.34
6216;BME280;3141;49.234;9.326;2023-05-21T02:18:12;99227.88;;;19.09;75.52
6216;BME280;3141;49.234;9.326;2023-05-21T02:19:17;99228.47;;;19.11;75.31
6216;BME280;3141;49.234;9.326;2023-05-21T02:20:18;99230.25;;;18.99;75.90
6216;BME280;3141;49.234;9.326;2023-05-21T02:21:19;99232.75;;;18.94;76.15
6216;BME280;3141;49.234;9.326;2023-05-21T02:22:20;99232.31;;;18.97;76.20
6216;BME280;3141;49.234;9.326;2023-05-21T02:23:21;99233.38;;;18.96;76.13
6216;BME280;3141;49.234;9.326;2023-05-21T02:24:21;99230.69;;;18.96;76.11
6216;BME280;3141;49.234;9.326;2023-05-21T02:25:24;99230.00;;;19.00;75.84
6216;BME280;3141;49.234;9.326;2023-05-21T02:26:25;99236.50;;;18.93;76.31
6216;BME280;3141;49.234;9.326;2023-05-21T02:27:26;99228.22;;;18.94;76.32
6216;BME280;3141;49.234;9.326;2023-05-21T02:28:31;99229.47;;;18.92;76.43
6216;BME280;3141;49.234;9.326;2023-05-21T02:29:32;99228.88;;;18.90;76.46
6216;BME280;3141;49.234;9.326;2023-05-21T02:30:33;99226.78;;;18.92;76.79
6216;BME280;3141;49.234;9.326;2023-05-21T02:31:34;99223.44;;;18.78;77.30
6216;BME280;3141;49.234;9.326;2023-05-21T02:32:35;99231.16;;;18.86;76.81
6216;BME280;3141;49.234;9.326;2023-05-21T02:33:39;99231.16;;;18.86;76.31
6216;BME280;3141;49.234;9.326;2023-05-21T02:34:40;99220.91;;;18.83;76.55
6216;BME280;3141;49.234;9.326;2023-05-21T02:35:43;99226.09;;;18.78;77.12
6216;BME280;3141;49.234;9.326;2023-05-21T02:36:45;99227.38;;;18.76;77.21
6216;BME280;3141;49.234;9.326;2023-05-21T02:37:51;99220.53;;;18.80;76.98
6216;BME280;3141;49.234;9.326;2023-05-21T02:38:53;99230.22;;;18.81;76.81
6216;BME280;3141;49.234;9.326;2023-05-21T02:39:54;99226.88;;;18.85;76.23
6216;BME280;3141;49.234;9.326;2023-05-21T02:40:56;99218.00;;;18.85;76.74
6216;BME280;3141;49.234;9.326;2023-05-21T02:41:57;99227.09;;;18.84;76.60
6216;BME280;3141;49.234;9.326;2023-05-21T02:42:58;99223.34;;;18.85;76.42
6216;BME280;3141;49.234;9.326;2023-05-21T02:43:59;99229.16;;;18.82;76.75
6216;BME280;3141;49.234;9.326;2023-05-21T02:44:59;99220.53;;;18.80;76.41
6216;BME280;3141;49.234;9.326;2023-05-21T02:46:00;99226.31;;;18.77;76.91
6216;BME280;3141;49.234;9.326;2023-05-21T02:47:01;99224.16;;;18.67;77.27
6216;BME280;3141;49.234;9.326;2023-05-21T02:48:02;99222.66;;;18.71;77.06
6216;BME280;3141;49.234;9.326;2023-05-21T02:49:03;99219.97;;;18.71;77.20
6216;BME280;3141;49.234;9.326;2023-05-21T02:50:05;99224.50;;;18.71;77.13
6216;BME280;3141;49.234;9.326;2023-05-21T02:51:06;99220.81;;;18.72;77.24
6216;BME280;3141;49.234;9.326;2023-05-21T02:52:07;99226.16;;;18.72;76.87
6216;BME280;3141;49.234;9.326;2023-05-21T02:53:08;99222.44;;;18.73;76.91
6216;BME280;3141;49.234;9.326;2023-05-21T02:54:09;99224.94;;;18.68;77.38
6216;BME280;3141;49.234;9.326;2023-05-21T02:55:10;99223.97;;;18.62;77.41
6216;BME280;3141;49.234;9.326;2023-05-21T02:56:11;99223.38;;;18.60;77.56
6216;BME280;3141;49.234;9.326;2023-05-21T02:57:12;99216.81;;;18.56;78.31
6216;BME280;3141;49.234;9.326;2023-05-21T02:58:13;99220.72;;;18.54;78.40
6216;BME280;3141;49.234;9.326;2023-05-21T02:59:14;99215.38;;;18.54;78.51
6216;BME280;3141;49.234;9.326;2023-05-21T03:00:16;99217.88;;;18.49;79.29
6216;BME280;3141;49.234;9.326;2023-05-21T03:01:16;99223.25;;;18.49;78.81
6216;BME280;3141;49.234;9.326;2023-05-21T03:02:17;99219.72;;;18.55;78.48
6216;BME280;3141;49.234;9.326;2023-05-21T03:03:18;99221.56;;;18.54;78.48
6216;BME280;3141;49.234;9.326;2023-05-21T03:04:19;99218.88;;;18.54;77.80
6216;BME280;3141;49.234;9.326;2023-05-21T03:05:21;99221.94;;;18.58;77.31
6216;BME280;3141;49.234;9.326;2023-05-21T03:06:22;99218.72;;;18.49;77.37
6216;BME280;3141;49.234;9.326;2023-05-21T03:07:23;99221.84;;;18.39;77.96
6216;BME280;3141;49.234;9.326;2023-05-21T03:08:24;99225.16;;;18.41;78.43
6216;BME280;3141;49.234;9.326;2023-05-21T03:09:26;99220.19;;;18.45;77.68
6216;BME280;3141;49.234;9.326;2023-05-21T03:10:27;99222.06;;;18.45;77.72
6216;BME280;3141;49.234;9.326;2023-05-21T03:11:28;99222.06;;;18.45;78.01
6216;BME280;3141;49.234;9.326;2023-05-21T03:12:29;99217.94;;;18.42;77.45
6216;BME280;3141;49.234;9.326;2023-05-21T03:13:30;99218.56;;;18.37;78.02
6216;BME280;3141;49.234;9.326;2023-05-21T03:14:31;99222.47;;;18.41;77.45
6216;BME280;3141;49.234;9.326;2023-05-21T03:15:33;99217.13;;;18.41;77.42
6216;BME280;3141;49.234;9.326;2023-05-21T03:16:34;99222.47;;;18.41;77.66
6216;BME280;3141;49.234;9.326;2023-05-21T03:17:35;99218.41;;;18.32;78.32
6216;BME280;3141;49.234;9.326;2023-05-21T03:18:36;99215.28;;;18.35;77.88
6216;BME280;3141;49.234;9.326;2023-05-21T03:19:39;99213.91;;;18.26;78.60
6216;BME280;3141;49.234;9.326;2023-05-21T03:20:40;99214.78;;;18.20;79.21
6216;BME280;3141;49.234;9.326;2023-05-21T03:21:43;99213.78;;;18.15;79.33
6216;BME280;3141;49.234;9.326;2023-05-21T03:22:44;99221.97;;;18.20;78.45
6216;BME280;3141;49.234;9.326;2023-05-21T03:23:46;99211.88;;;18.22;78.43
6216;BME280;3141;49.234;9.326;2023-05-21T03:24:47;99217.03;;;18.23;78.69
6216;BME280;3141;49.234;9.326;2023-05-21T03:25:48;99225.50;;;18.20;78.73
6216;BME280;3141;49.234;9.326;2023-05-21T03:26:50;99223.19;;;18.24;78.48
6216;BME280;3141;49.234;9.326;2023-05-21T03:27:51;99225.88;;;18.17;78.17
6216;BME280;3141;49.234;9.326;2023-05-21T03:28:52;99226.34;;;18.14;78.85
6216;BME280;3141;49.234;9.326;2023-05-21T03:29:53;99213.13;;;18.19;78.64
6216;BME280;3141;49.234;9.326;2023-05-21T03:30:55;99227.94;;;18.22;78.24
6216;BME280;3141;49.234;9.326;2023-05-21T03:31:56;99221.38;;;18.18;77.99
6216;BME280;3141;49.234;9.326;2023-05-21T03:32:57;99221.59;;;18.16;78.53
6216;BME280;3141;49.234;9.326;2023-05-21T03:33:59;99221.59;;;18.16;78.72
6216;BME280;3141;49.234;9.326;2023-05-21T03:35:00;99223.44;;;18.16;78.75
6216;BME280;3141;49.234;9.326;2023-05-21T03:36:01;99220.19;;;18.07;79.35
6216;BME280;3141;49.234;9.326;2023-05-21T03:37:02;99217.13;;;18.04;79.20
6216;BME280;3141;49.234;9.326;2023-05-21T03:38:03;99226.78;;;18.11;79.06
6216;BME280;3141;49.234;9.326;2023-05-21T03:39:04;99222.81;;;18.14;78.39
6216;BME280;3141;49.234;9.326;2023-05-21T03:40:06;99223.97;;;18.00;79.51
6216;BME280;3141;49.234;9.326;2023-05-21T03:41:07;99220.03;;;18.02;79.15
6216;BME280;3141;49.234;9.326;2023-05-21T03:42:08;99225.53;;;18.07;78.66
6216;BME280;3141;49.234;9.326;2023-05-21T03:43:09;99225.09;;;18.10;78.26
6216;BME280;3141;49.234;9.326;2023-05-21T03:44:10;99218.34;;;18.08;78.64
6216;BME280;3141;49.234;9.326;2023-05-21T03:45:11;99216.31;;;18.03;78.81
6216;BME280;3141;49.234;9.326;2023-05-21T03:46:12;99212.47;;;17.93;79.41
6216;BME280;3141;49.234;9.326;2023-05-21T03:47:13;99216.13;;;17.98;79.41
6216;BME280;3141;49.234;9.326;2023-05-21T03:48:14;99219.59;;;18.05;78.87
6216;BME280;3141;49.234;9.326;2023-05-21T03:49:15;99219.59;;;18.05;79.13
6216;BME280;3141;49.234;9.326;2023-05-21T03:50:16;99216.50;;;18.08;79.22
6216;BME280;3141;49.234;9.326;2023-05-21T03:51:17;99213.22;;;18.06;79.05
6216;BME280;3141;49.234;9.326;2023-05-21T03:52:19;99216.50;;;18.08;78.56
6216;BME280;3141;49.234;9.326;2023-05-21T03:53:20;99218.53;;;18.13;78.47
6216;BME280;3141;49.234;9.326;2023-05-21T03:54:21;99216.69;;;18.13;78.27
6216;BME280;3141;49.234;9.326;2023-05-21T03:55:22;99216.06;;;18.11;78.31
6216;BME280;3141;49.234;9.326;2023-05-21T03:56:24;99220.16;;;18.14;77.91
6216;BME280;3141;49.234;9.326;2023-05-21T03:57:25;99219.75;;;18.10;78.10
6216;BME280;3141;49.234;9.326;2023-05-21T03:58:26;99217.31;;;18.09;77.98
6216;BME280;3141;49.234;9.326;2023-05-21T03:59:27;99217.34;;;18.02;78.16
6216;BME280;3141;49.234;9.326;2023-05-21T04:00:28;99221.06;;;18.01;78.34
6216;BME280;3141;49.234;9.326;2023-05-21T04:01:29;99211.66;;;17.92;78.32
6216;BME280;3141;49.234;9.326;2023-05-21T04:02:30;99214.50;;;17.97;78.46
6216;BME280;3141;49.234;9.326;2023-05-21T04:03:31;99219.19;;;18.02;78.53
6216;BME280;3141;49.234;9.326;2023-05-21T04:04:35;99215.13;;;17.99;78.02
6216;BME280;3141;49.234;9.326;2023-05-21T04:05:36;99221.56;;;17.85;78.59
6216;BME280;3141;49.234;9.326;2023-05-21T04:06:37;99213.97;;;17.82;78.73
6216;BME280;3141;49.234;9.326;2023-05-21T04:07:38;99220.09;;;17.89;78.24
6216;BME280;3141;49.234;9.326;2023-05-21T04:08:39;99218.00;;;17.98;78.11
6216;BME280;3141;49.234;9.326;2023-05-21T04:09:40;99219.44;;;17.94;78.10
6216;BME280;3141;49.234;9.326;2023-05-21T04:10:42;99221.50;;;17.92;78.67
6216;BME280;3141;49.234;9.326;2023-05-21T04:11:42;99222.13;;;17.94;78.41
6216;BME280;3141;49.234;9.326;2023-05-21T04:12:43;99222.75;;;17.96;78.67
6216;BME280;3141;49.234;9.326;2023-05-21T04:13:44;99219.66;;;17.92;78.67
6216;BME280;3141;49.234;9.326;2023-05-21T04:14:46;99214.50;;;17.97;78.37
6216;BME280;3141;49.234;9.326;2023-05-21T04:15:47;99224.38;;;17.97;78.87
6216;BME280;3141;49.234;9.326;2023-05-21T04:16:48;99221.91;;;17.95;78.85
6216;BME280;3141;49.234;9.326;2023-05-21T04:17:49;99226.03;;;17.91;79.16
6216;BME280;3141;49.234;9.326;2023-05-21T04:18:52;99224.81;;;17.94;79.24
6216;BME280;3141;49.234;9.326;2023-05-21T04:19:54;99232.03;;;17.87;79.57
6216;BME280;3141;49.234;9.326;2023-05-21T04:20:55;99230.38;;;17.92;78.51
6216;BME280;3141;49.234;9.326;2023-05-21T04:21:58;99225.25;;;17.91;77.90
6216;BME280;3141;49.234;9.326;2023-05-21T04:22:59;99225.97;;;18.04;77.96
6216;BME280;3141;49.234;9.326;2023-05-21T04:24:00;99231.50;;;18.09;77.17
6216;BME280;3141;49.234;9.326;2023-05-21T04:25:02;99233.78;;;18.06;77.21
6216;BME280;3141;49.234;9.326;2023-05-21T04:26:02;99234.63;;;18.06;77.61
6216;BME280;3141;49.234;9.326;2023-05-21T04:27:04;99232.34;;;18.03;77.28
6216;BME280;3141;49.234;9.326;2023-05-21T04:28:05;99229.50;;;18.05;77.09
6216;BME280;3141;49.234;9.326;2023-05-21T04:29:07;99236.03;;;18.09;76.73
6216;BME280;3141;49.234;9.326;2023-05-21T04:30:08;99232.28;;;18.16;76.90
6216;BME280;3141;49.234;9.326;2023-05-21T04:31:09;99238.25;;;18.18;76.50
6216;BME280;3141;49.234;9.326;2023-05-21T04:32:12;99236.38;;;18.19;76.71
6216;BME280;3141;49.234;9.326;2023-05-21T04:33:14;99228.75;;;18.22;76.40
6216;BME280;3141;49.234;9.326;2023-05-21T04:34:19;99239.25;;;18.24;76.32
6216;BME280;3141;49.234;9.326;2023-05-21T04:35:21;99236.97;;;18.21;77.15
6216;BME280;3141;49.234;9.326;2023-05-21T04:36:23;99233.31;;;18.15;76.66
6216;BME280;3141;49.234;9.326;2023-05-21T04:37:24;99240.72;;;18.20;75.27
6216;BME280;3141;49.234;9.326;2023-05-21T04:38:24;99232.06;;;18.18;76.62
6216;BME280;3141;49.234;9.326;2023-05-21T04:39:26;99238.44;;;18.23;76.64
6216;BME280;3141;49.234;9.326;2023-05-21T04:40:28;99244.34;;;18.32;76.15
6216;BME280;3141;49.234;9.326;2023-05-21T04:41:29;99241.44;;;18.33;75.81
6216;BME280;3141;49.234;9.326;2023-05-21T04:42:31;99246.78;;;18.33;75.79
6216;BME280;3141;49.234;9.326;2023-05-21T04:43:32;99235.66;;;18.36;75.96
6216;BME280;3141;49.234;9.326;2023-05-21T04:44:33;99238.53;;;18.41;75.97
6216;BME280;3141;49.234;9.326;2023-05-21T04:45:34;99240.34;;;18.48;75.48
6216;BME280;3141;49.234;9.326;2023-05-21T04:46:35;99244.06;;;18.47;76.03
6216;BME280;3141;49.234;9.326;2023-05-21T04:47:37;99242.16;;;18.54;75.54
6216;BME280;3141;49.234;9.326;2023-05-21T04:48:38;99246.25;;;18.56;75.51
6216;BME280;3141;49.234;9.326;2023-05-21T04:49:40;99247.47;;;18.60;75.16
6216;BME280;3141;49.234;9.326;2023-05-21T04:50:42;99244.19;;;18.58;75.49
6216;BME280;3141;49.234;9.326;2023-05-21T04:51:42;99244.59;;;18.55;75.87
6216;BME280;3141;49.234;9.326;2023-05-21T04:52:43;99243.81;;;18.55;76.02
6216;BME280;3141;49.234;9.326;2023-05-21T04:53:45;99243.69;;;18.68;75.74
6216;BME280;3141;49.234;9.326;2023-05-21T04:54:47;99251.88;;;18.73;75.47
6216;BME280;3141;49.234;9.326;2023-05-21T04:55:48;99244.91;;;18.72;75.56
6216;BME280;3141;49.234;9.326;2023-05-21T04:56:49;99253.50;;;18.80;75.25
6216;BME280;3141;49.234;9.326;2023-05-21T04:57:50;99250.44;;;18.77;75.40
6216;BME280;3141;49.234;9.326;2023-05-21T04:58:52;99249.75;;;18.81;75.06
6216;BME280;3141;49.234;9.326;2023-05-21T04:59:54;99247.03;;;18.88;74.98
6216;BME280;3141;49.234;9.326;2023-05-21T05:00:56;99251.66;;;18.99;74.82
6216;BME280;3141;49.234;9.326;2023-05-21T05:01:57;99252.06;;;19.02;74.40
6216;BME280;3141;49.234;9.326;2023-05-21T05:02:58;99252.13;;;18.96;74.19
6216;BME280;3141;49.234;9.326;2023-05-21T05:03:59;99259.44;;;19.07;74.21
6216;BME280;3141;49.234;9.326;2023-05-21T05:05:01;99249.53;;;19.07;74.17
6216;BME280;3141;49.234;9.326;2023-05-21T05:06:02;99260.19;;;19.14;74.00
6216;BME280;3141;49.234;9.326;2023-05-21T05:07:03;99259.00;;;19.10;74.13
6216;BME280;3141;49.234;9.326;2023-05-21T05:08:05;99254.03;;;19.13;74.29
6216;BME280;3141;49.234;9.326;2023-05-21T05:09:06;99259.09;;;19.21;73.65
6216;BME280;3141;49.234;9.326;2023-05-21T05:10:08;99255.56;;;19.21;73.69
6216;BME280;3141;49.234;9.326;2023-05-21T05:11:09;99256.34;;;19.28;73.81
6216;BME280;3141;49.234;9.326;2023-05-21T05:12:11;99257.13;;;19.35;73.60
6216;BME280;3141;49.234;9.326;2023-05-21T05:13:12;99250.75;;;19.29;73.79
6216;BME280;3141;49.234;9.326;2023-05-21T05:14:13;99255.16;;;19.24;73.76
6216;BME280;3141;49.234;9.326;2023-05-21T05:15:14;99252.25;;;19.25;73.76
6216;BME280;3141;49.234;9.326;2023-05-21T05:16:15;99257.34;;;19.33;73.64
6216;BME280;3141;49.234;9.326;2023-05-21T05:17:18;99255.03;;;19.37;73.43
6216;BME280;3141;49.234;9.326;2023-05-21T05:18:19;99255.72;;;19.50;72.86
6216;BME280;3141;49.234;9.326;2023-05-21T05:19:20;99254.38;;;19.60;72.54
6216;BME280;3141;49.234;9.326;2023-05-21T05:20:21;99256.97;;;19.66;72.37
6216;BME280;3141;49.234;9.326;2023-05-21T05:21:22;99258.03;;;19.65;72.48
6216;BME280;3141;49.234;9.326;2023-05-21T05:22:23;99260.41;;;19.73;72.39
6216;BME280;3141;49.234;9.326;2023-05-21T05:23:24;99261.59;;;19.77;72.20
6216;BME280;3141;49.234;9.326;2023-05-21T05:24:25;99256.16;;;19.84;71.68
6216;BME280;3141;49.234;9.326;2023-05-21T05:25:26;99260.28;;;19.86;71.87
6216;BME280;3141;49.234;9.326;2023-05-21T05:26:27;99255.03;;;19.91;71.80
6216;BME280;3141;49.234;9.326;2023-05-21T05:27:28;99262.06;;;20.04;71.45
6216;BME280;3141;49.234;9.326;2023-05-21T05:28:29;99271.56;;;20.06;71.66
6216;BME280;3141;49.234;9.326;2023-05-21T05:29:30;99268.13;;;20.17;71.21
6216;BME280;3141;49.234;9.326;2023-05-21T05:30:31;99262.91;;;20.22;70.64
6216;BME280;3141;49.234;9.326;2023-05-21T05:31:32;99263.47;;;20.24;71.09
6216;BME280;3141;49.234;9.326;2023-05-21T05:32:33;99261.28;;;20.33;70.64
6216;BME280;3141;49.234;9.326;2023-05-21T05:33:34;99262.84;;;20.40;70.16
6216;BME280;3141;49.234;9.326;2023-05-21T05:34:36;99256.13;;;20.49;69.94
6216;BME280;3141;49.234;9.326;2023-05-21T05:35:37;99261.22;;;20.39;70.67
6216;BME280;3141;49.234;9.326;2023-05-21T05:36:38;99251.94;;;20.53;70.34
6216;BME280;3141;49.234;9.326;2023-05-21T05:37:39;99255.47;;;20.65;70.06